createdAt,value
2023-04-09T00:00:16.758Z,110.60
2023-04-09T00:01:19.132Z,103.88
2023-04-09T00:02:21.482Z,101.95
2023-04-09T00:03:23.785Z,107.57
2023-04-09T00:04:26.094Z,109.03
2023-04-09T00:05:28.638Z,103.53
2023-04-09T00:06:31.363Z,105.30
2023-04-09T00:07:33.578Z,100.00
2023-04-09T00:08:35.956Z,99.10
2023-04-09T00:09:38.151Z,99.53
2023-04-09T00:10:40.446Z,103.22
2023-04-09T00:11:42.965Z,93.90
2023-04-09T00:12:46.773Z,103.63
2023-04-09T00:13:48.967Z,91.45
2023-04-09T00:14:51.762Z,89.47
2023-04-09T00:15:53.926Z,93.57
2023-04-09T00:16:56.318Z,90.63
2023-04-09T00:17:58.959Z,92.63
2023-04-09T00:19:01.196Z,91.45
2023-04-09T00:20:05.967Z,92.40
2023-04-09T00:21:08.708Z,88.10
2023-04-09T00:22:11.254Z,89.53
2023-04-09T00:23:14.487Z,91.80
2023-04-09T00:24:16.643Z,93.20
2023-04-09T00:25:19.931Z,93.53
2023-04-09T00:26:22.436Z,91.00
2023-04-09T00:27:24.819Z,92.75
2023-04-09T00:28:27.117Z,96.13
2023-04-09T00:29:29.299Z,89.45
2023-04-09T00:30:32.655Z,90.75
2023-04-09T00:31:35.005Z,86.97
2023-04-09T00:32:41.580Z,87.65
2023-04-09T00:33:44.094Z,82.45
2023-04-09T00:34:46.612Z,83.45
2023-04-09T00:35:48.843Z,83.10
2023-04-09T00:36:51.243Z,81.80
2023-04-09T00:37:53.589Z,88.43
2023-04-09T00:38:56.106Z,87.45
2023-04-09T00:39:58.500Z,80.07
2023-04-09T00:41:01.077Z,89.93
2023-04-09T00:42:03.618Z,90.03
2023-04-09T00:43:06.941Z,87.85
2023-04-09T00:44:09.144Z,86.72
2023-04-09T00:45:11.556Z,87.00
2023-04-09T00:46:14.375Z,85.47
2023-04-09T00:47:17.742Z,85.18
2023-04-09T00:48:20.860Z,86.10
2023-04-09T00:49:24.779Z,91.53
2023-04-09T00:50:27.177Z,92.82
2023-04-09T00:51:29.600Z,89.25
2023-04-09T00:52:33.325Z,93.50
2023-04-09T00:53:35.595Z,94.53
2023-04-09T00:54:37.879Z,92.60
2023-04-09T00:55:41.710Z,85.00
2023-04-09T00:56:44.137Z,93.57
2023-04-09T00:57:47.104Z,84.65
2023-04-09T00:58:49.906Z,87.43
2023-04-09T00:59:52.177Z,82.90
2023-04-09T01:00:55.509Z,86.05
2023-04-09T01:01:58.168Z,89.82
2023-04-09T01:03:01.068Z,88.28
2023-04-09T01:04:03.652Z,88.03
2023-04-09T01:05:06.514Z,81.60
2023-04-09T01:06:33.121Z,85.65
2023-04-09T01:07:51.376Z,80.00
2023-04-09T01:08:56.244Z,80.55
2023-04-09T01:10:53.801Z,90.85
2023-04-09T01:11:56.825Z,79.57
2023-04-09T01:12:59.373Z,79.68
2023-04-09T01:14:08.762Z,79.65
2023-04-09T01:15:18.361Z,81.40
2023-04-09T01:16:23.311Z,78.55
2023-04-09T01:17:46.795Z,82.05
2023-04-09T01:19:00.006Z,82.05
2023-04-09T01:20:07.488Z,77.70
2023-04-09T01:21:12.024Z,85.43
2023-04-09T01:22:40.438Z,78.93
2023-04-09T01:23:47.998Z,78.55
2023-04-09T01:25:45.478Z,79.57
2023-04-09T01:26:57.284Z,84.88
2023-04-09T01:28:21.058Z,75.43
2023-04-09T01:29:26.684Z,83.05
2023-04-09T01:30:29.960Z,77.45
2023-04-09T01:31:37.482Z,81.40
2023-04-09T01:32:41.593Z,82.60
2023-04-09T01:33:44.963Z,85.82
2023-04-09T01:34:48.659Z,82.43
2023-04-09T01:35:52.800Z,85.72
2023-04-09T01:36:59.480Z,89.05
2023-04-09T01:38:03.986Z,79.30
2023-04-09T01:39:06.820Z,85.80
2023-04-09T01:40:09.651Z,86.40
2023-04-09T01:41:18.144Z,79.40
2023-04-09T01:42:21.134Z,81.22
2023-04-09T01:43:24.564Z,77.22
2023-04-09T01:44:29.043Z,81.00
2023-04-09T01:45:31.238Z,76.88
2023-04-09T01:46:35.335Z,70.60
2023-04-09T01:47:38.721Z,74.53
2023-04-09T01:48:41.618Z,67.28
2023-04-09T01:49:44.828Z,72.90
2023-04-09T01:50:48.068Z,75.65
2023-04-09T01:51:50.885Z,76.72
2023-04-09T01:52:53.426Z,83.30
2023-04-09T01:53:56.206Z,83.55
2023-04-09T01:54:58.780Z,97.90
2023-04-09T01:56:01.637Z,98.57
2023-04-09T01:57:04.316Z,101.13
2023-04-09T01:58:06.740Z,110.45
2023-04-09T01:59:09.023Z,94.00
2023-04-09T02:00:12.306Z,100.85
2023-04-09T02:01:32.175Z,101.32
2023-04-09T02:02:41.770Z,95.38
2023-04-09T02:03:53.726Z,100.45
2023-04-09T02:04:58.867Z,86.00
2023-04-09T02:06:13.582Z,94.82
2023-04-09T02:07:26.364Z,93.90
2023-04-09T02:08:30.758Z,89.07
2023-04-09T02:09:37.103Z,88.15
2023-04-09T02:10:40.878Z,86.50
2023-04-09T02:11:43.795Z,88.68
2023-04-09T02:12:52.545Z,86.22
2023-04-09T02:13:56.662Z,92.63
2023-04-09T02:15:02.362Z,89.40
2023-04-09T02:16:06.051Z,93.68
2023-04-09T02:17:08.508Z,94.93
2023-04-09T02:18:28.537Z,90.80
2023-04-09T02:19:41.536Z,91.45
2023-04-09T02:20:43.887Z,90.40
2023-04-09T02:21:46.459Z,94.00
2023-04-09T02:22:49.059Z,91.90
2023-04-09T02:23:51.304Z,89.40
2023-04-09T02:24:54.024Z,87.75
2023-04-09T02:25:56.570Z,91.47
2023-04-09T02:26:58.762Z,90.25
2023-04-09T02:28:01.129Z,99.45
2023-04-09T02:29:03.564Z,89.72
2023-04-09T02:30:06.607Z,92.97
2023-04-09T02:31:09.099Z,89.63
2023-04-09T02:32:11.352Z,87.05
2023-04-09T02:33:13.829Z,91.57
2023-04-09T02:34:16.085Z,94.05
2023-04-09T02:35:18.509Z,82.53
2023-04-09T02:36:20.809Z,86.10
2023-04-09T02:37:23.235Z,95.90
2023-04-09T02:38:25.416Z,97.03
2023-04-09T02:39:27.824Z,98.28
2023-04-09T02:40:30.326Z,97.03
2023-04-09T02:41:32.578Z,106.10
2023-04-09T02:42:35.365Z,105.07
2023-04-09T02:43:37.688Z,104.90
2023-04-09T02:44:39.952Z,99.90
2023-04-09T02:45:42.592Z,106.45
2023-04-09T02:46:46.387Z,112.57
2023-04-09T02:47:49.141Z,105.43
2023-04-09T02:48:51.700Z,107.55
2023-04-09T02:49:54.328Z,111.70
2023-04-09T02:50:57.351Z,105.60
2023-04-09T02:51:59.589Z,111.80
2023-04-09T02:53:01.853Z,117.47
2023-04-09T02:54:04.658Z,110.90
2023-04-09T02:55:08.507Z,109.97
2023-04-09T02:56:10.785Z,107.38
2023-04-09T02:57:13.001Z,111.15
2023-04-09T02:58:15.706Z,109.60
2023-04-09T02:59:18.074Z,107.75
2023-04-09T03:00:20.882Z,107.05
2023-04-09T03:01:23.175Z,112.03
2023-04-09T03:02:25.553Z,108.78
2023-04-09T03:03:28.198Z,109.80
2023-04-09T03:04:30.617Z,104.43
2023-04-09T03:05:33.035Z,109.13
2023-04-09T03:06:40.824Z,105.75
2023-04-09T03:07:43.042Z,104.53
2023-04-09T03:08:45.622Z,108.80
2023-04-09T03:09:47.833Z,98.57
2023-04-09T03:10:50.414Z,101.85
2023-04-09T03:11:52.647Z,108.88
2023-04-09T03:12:55.282Z,106.70
2023-04-09T03:13:58.749Z,105.75
2023-04-09T03:15:01.005Z,100.00
2023-04-09T03:16:04.981Z,109.72
2023-04-09T03:17:07.239Z,100.68
2023-04-09T03:18:09.626Z,103.43
2023-04-09T03:19:11.761Z,105.15
2023-04-09T03:20:14.324Z,107.07
2023-04-09T03:21:16.622Z,103.30
2023-04-09T03:22:23.315Z,102.55
2023-04-09T03:23:28.125Z,101.97
2023-04-09T03:24:32.231Z,102.82
2023-04-09T03:25:39.194Z,102.25
2023-04-09T03:26:47.811Z,101.10
2023-04-09T03:27:51.094Z,105.82
2023-04-09T03:29:02.212Z,99.40
2023-04-09T03:30:04.866Z,104.63
2023-04-09T03:31:17.224Z,110.35
2023-04-09T03:32:20.773Z,103.68
2023-04-09T03:33:24.133Z,101.65
2023-04-09T03:34:29.799Z,108.55
2023-04-09T03:35:33.318Z,109.32
2023-04-09T03:36:36.289Z,105.03
2023-04-09T03:37:43.399Z,106.85
2023-04-09T03:38:51.863Z,113.25
2023-04-09T03:40:14.436Z,103.38
2023-04-09T03:41:17.065Z,106.30
2023-04-09T03:42:19.275Z,109.35
2023-04-09T03:43:24.073Z,117.50
2023-04-09T03:44:28.462Z,121.30
2023-04-09T03:45:38.813Z,117.72
2023-04-09T03:46:56.465Z,124.65
2023-04-09T03:47:59.807Z,119.30
2023-04-09T03:49:02.294Z,123.35
2023-04-09T03:51:23.020Z,122.80
2023-04-09T03:52:31.120Z,129.02
2023-04-09T03:53:38.049Z,130.93
2023-04-09T03:54:43.512Z,125.60
2023-04-09T03:55:51.432Z,127.60
2023-04-09T03:56:59.346Z,126.47
2023-04-09T03:58:01.549Z,128.52
2023-04-09T03:59:07.250Z,132.77
2023-04-09T04:00:22.478Z,130.90
2023-04-09T04:01:48.480Z,135.38
2023-04-09T04:02:52.174Z,120.07
2023-04-09T04:04:11.960Z,117.32
2023-04-09T04:05:18.900Z,125.60
2023-04-09T04:06:24.504Z,122.68
2023-04-09T04:07:38.135Z,121.00
2023-04-09T04:08:47.770Z,124.32
2023-04-09T04:09:51.661Z,119.30
2023-04-09T04:10:54.909Z,121.03
2023-04-09T04:11:58.887Z,119.95
2023-04-09T04:13:15.661Z,115.50
2023-04-09T04:14:23.805Z,124.90
2023-04-09T04:15:32.665Z,123.97
2023-04-09T04:16:35.153Z,116.47
2023-04-09T04:17:39.502Z,115.95
2023-04-09T04:18:53.171Z,115.03
2023-04-09T04:19:56.293Z,113.43
2023-04-09T04:20:59.433Z,119.43
2023-04-09T04:23:08.236Z,114.70
2023-04-09T04:24:14.362Z,108.03
2023-04-09T04:25:17.280Z,115.35
2023-04-09T04:26:20.850Z,122.63
2023-04-09T04:27:23.465Z,120.25
2023-04-09T04:28:26.317Z,112.60
2023-04-09T04:29:28.552Z,118.75
2023-04-09T04:30:34.115Z,118.47
2023-04-09T04:31:40.562Z,125.15
2023-04-09T04:32:43.064Z,122.18
2023-04-09T04:33:47.148Z,125.05
2023-04-09T04:34:50.813Z,129.02
2023-04-09T04:36:10.367Z,121.60
2023-04-09T04:37:17.265Z,123.88
2023-04-09T04:38:19.719Z,120.30
2023-04-09T04:39:21.925Z,115.35
2023-04-09T04:40:35.255Z,121.72
2023-04-09T04:41:37.832Z,124.18
2023-04-09T04:42:50.202Z,123.15
2023-04-09T04:43:52.485Z,123.93
2023-04-09T04:44:57.982Z,122.63
2023-04-09T04:46:13.040Z,122.07
2023-04-09T04:47:15.663Z,113.57
2023-04-09T04:48:17.921Z,119.68
2023-04-09T04:49:20.333Z,128.27
2023-04-09T04:50:23.539Z,120.50
2023-04-09T04:51:36.341Z,121.45
2023-04-09T04:52:44.298Z,116.53
2023-04-09T04:53:46.913Z,121.78
2023-04-09T04:54:50.365Z,111.10
2023-04-09T04:55:57.084Z,127.85
2023-04-09T04:57:02.057Z,119.22
2023-04-09T04:58:11.359Z,115.85
2023-04-09T04:59:19.867Z,119.65
2023-04-09T05:00:32.637Z,113.00
2023-04-09T05:01:37.971Z,106.63
2023-04-09T05:02:44.668Z,115.20
2023-04-09T05:03:59.411Z,118.18
2023-04-09T05:05:08.179Z,109.18
2023-04-09T05:06:15.938Z,106.50
2023-04-09T05:07:20.766Z,109.05
2023-04-09T05:08:27.167Z,104.93
2023-04-09T05:09:31.399Z,105.13
2023-04-09T05:10:43.100Z,101.22
2023-04-09T05:11:46.317Z,104.03
2023-04-09T05:12:54.276Z,95.90
2023-04-09T05:14:04.806Z,95.82
2023-04-09T05:15:08.077Z,96.30
2023-04-09T05:16:19.158Z,98.55
2023-04-09T05:17:27.047Z,96.35
2023-04-09T05:18:29.633Z,97.55
2023-04-09T05:19:31.905Z,103.85
2023-04-09T05:20:37.727Z,90.93
2023-04-09T05:21:44.118Z,98.85
2023-04-09T05:22:47.747Z,101.95
2023-04-09T05:23:50.766Z,100.63
2023-04-09T05:24:53.815Z,114.50
2023-04-09T05:25:56.465Z,104.47
2023-04-09T05:27:12.454Z,104.78
2023-04-09T05:28:19.464Z,95.75
2023-04-09T05:29:25.349Z,96.53
2023-04-09T05:30:27.700Z,100.32
2023-04-09T05:31:32.944Z,99.95
2023-04-09T05:32:40.413Z,100.35
2023-04-09T05:33:43.324Z,94.10
2023-04-09T05:34:52.635Z,105.05
2023-04-09T05:35:55.180Z,106.78
2023-04-09T05:36:57.452Z,96.43
2023-04-09T05:38:01.172Z,99.90
2023-04-09T05:39:03.519Z,99.60
2023-04-09T05:40:06.918Z,94.95
2023-04-09T05:41:09.211Z,93.43
2023-04-09T05:42:18.582Z,97.00
2023-04-09T05:43:47.260Z,102.93
2023-04-09T05:44:50.479Z,97.88
2023-04-09T05:45:55.967Z,101.75
2023-04-09T05:46:58.322Z,100.50
2023-04-09T05:48:06.985Z,99.10
2023-04-09T05:49:09.199Z,98.68
2023-04-09T05:50:12.819Z,100.95
2023-04-09T05:51:16.534Z,97.00
2023-04-09T05:52:19.794Z,97.53
2023-04-09T05:53:22.659Z,94.05
2023-04-09T05:54:26.049Z,97.03
2023-04-09T05:55:28.309Z,89.38
2023-04-09T05:56:34.934Z,98.05
2023-04-09T05:57:37.138Z,92.70
2023-04-09T05:58:40.173Z,100.30
2023-04-09T05:59:42.431Z,94.95
2023-04-09T06:00:44.916Z,96.05
2023-04-09T06:01:47.301Z,93.15
2023-04-09T06:02:50.037Z,93.68
2023-04-09T06:03:56.141Z,88.80
2023-04-09T06:05:00.247Z,94.65
2023-04-09T06:06:02.625Z,90.38
2023-04-09T06:07:04.822Z,90.82
2023-04-09T06:08:07.398Z,87.55
2023-04-09T06:09:09.806Z,86.45
2023-04-09T06:10:16.892Z,88.95
2023-04-09T06:11:19.534Z,87.88
2023-04-09T06:12:22.024Z,90.53
2023-04-09T06:13:24.642Z,92.82
2023-04-09T06:14:27.044Z,85.68
2023-04-09T06:15:29.281Z,87.45
2023-04-09T06:16:33.509Z,85.78
2023-04-09T06:17:35.868Z,95.25
2023-04-09T06:18:38.411Z,92.53
2023-04-09T06:19:40.634Z,89.43
2023-04-09T06:20:43.031Z,81.60
2023-04-09T06:21:45.325Z,87.38
2023-04-09T06:22:48.092Z,91.03
2023-04-09T06:23:50.795Z,81.75
2023-04-09T06:24:53.253Z,79.90
2023-04-09T06:25:55.873Z,78.85
2023-04-09T06:26:58.075Z,80.75
2023-04-09T06:28:00.291Z,79.72
2023-04-09T06:29:03.540Z,79.85
2023-04-09T06:30:06.478Z,77.90
2023-04-09T06:31:09.025Z,75.15
2023-04-09T06:32:11.441Z,75.50
2023-04-09T06:33:13.701Z,77.22
2023-04-09T06:34:16.177Z,74.72
2023-04-09T06:35:18.407Z,79.75
2023-04-09T06:36:21.306Z,76.90
2023-04-09T06:37:23.653Z,77.70
2023-04-09T06:38:25.950Z,74.55
2023-04-09T06:39:28.365Z,68.68
2023-04-09T06:40:30.822Z,72.85
2023-04-09T06:41:33.684Z,77.07
2023-04-09T06:42:39.976Z,71.28
2023-04-09T06:43:52.473Z,73.57
2023-04-09T06:44:54.933Z,71.03
2023-04-09T06:45:57.283Z,76.90
2023-04-09T06:46:59.522Z,72.53
2023-04-09T06:48:01.916Z,76.25
2023-04-09T06:49:04.485Z,68.38
2023-04-09T06:50:07.311Z,74.70
2023-04-09T06:51:09.669Z,74.65
2023-04-09T06:52:12.103Z,72.47
2023-04-09T06:53:15.473Z,72.65
2023-04-09T06:54:17.839Z,69.05
2023-04-09T06:55:20.340Z,74.15
2023-04-09T06:56:22.507Z,66.88
2023-04-09T06:57:24.699Z,67.63
2023-04-09T06:58:26.883Z,70.25
2023-04-09T06:59:29.252Z,68.85
2023-04-09T07:00:31.471Z,69.05
2023-04-09T07:01:35.583Z,65.25
2023-04-09T07:02:38.612Z,64.45
2023-04-09T07:03:41.233Z,63.53
2023-04-09T07:04:43.968Z,63.05
2023-04-09T07:05:46.413Z,61.22
2023-04-09T07:06:48.624Z,64.55
2023-04-09T07:07:51.191Z,58.10
2023-04-09T07:08:53.677Z,61.30
2023-04-09T07:09:56.370Z,59.80
2023-04-09T07:10:58.645Z,62.65
2023-04-09T07:12:01.088Z,59.85
2023-04-09T07:13:03.427Z,57.88
2023-04-09T07:14:05.951Z,59.30
2023-04-09T07:15:08.534Z,57.40
2023-04-09T07:16:11.085Z,56.72
2023-04-09T07:17:13.306Z,58.00
2023-04-09T07:18:15.780Z,65.65
2023-04-09T07:19:18.355Z,58.75
2023-04-09T07:20:20.778Z,63.10
2023-04-09T07:21:22.930Z,55.53
2023-04-09T07:22:27.259Z,62.83
2023-04-09T07:23:29.421Z,57.17
2023-04-09T07:24:32.583Z,56.90
2023-04-09T07:25:34.783Z,58.53
2023-04-09T07:26:37.296Z,60.20
2023-04-09T07:27:39.543Z,56.33
2023-04-09T07:28:42.276Z,55.65
2023-04-09T07:29:45.150Z,50.42
2023-04-09T07:30:47.376Z,49.72
2023-04-09T07:31:49.799Z,51.10
2023-04-09T07:32:52.207Z,47.10
2023-04-09T07:33:54.791Z,47.17
2023-04-09T07:34:57.718Z,48.72
2023-04-09T07:35:59.900Z,46.50
2023-04-09T07:37:02.165Z,51.13
2023-04-09T07:38:04.469Z,45.55
2023-04-09T07:39:06.882Z,43.05
2023-04-09T07:40:09.477Z,44.33
2023-04-09T07:41:11.850Z,43.83
2023-04-09T07:42:14.514Z,46.22
2023-04-09T07:43:16.885Z,49.55
2023-04-09T07:44:19.357Z,45.05
2023-04-09T07:45:21.699Z,44.42
2023-04-09T07:46:23.924Z,44.90
2023-04-09T07:47:26.982Z,42.05
2023-04-09T07:48:29.474Z,42.63
2023-04-09T07:49:31.852Z,44.03
2023-04-09T07:50:34.087Z,42.42
2023-04-09T07:51:36.411Z,38.85
2023-04-09T07:52:38.858Z,35.65
2023-04-09T07:53:41.377Z,36.00
2023-04-09T07:54:43.787Z,37.75
2023-04-09T07:55:46.621Z,40.08
2023-04-09T07:56:49.140Z,36.85
2023-04-09T07:57:51.724Z,45.13
2023-04-09T07:58:54.346Z,40.13
2023-04-09T07:59:56.862Z,38.90
2023-04-09T08:00:59.050Z,37.65
2023-04-09T08:02:01.541Z,38.55
2023-04-09T08:03:04.237Z,36.30
2023-04-09T08:04:06.987Z,39.47
2023-04-09T08:05:09.943Z,41.05
2023-04-09T08:06:12.158Z,41.70
2023-04-09T08:07:14.515Z,40.38
2023-04-09T08:08:16.755Z,39.95
2023-04-09T08:09:20.768Z,40.90
2023-04-09T08:10:23.388Z,42.92
2023-04-09T08:11:26.085Z,38.67
2023-04-09T08:12:28.569Z,42.67
2023-04-09T08:13:30.766Z,37.55
2023-04-09T08:14:33.219Z,33.50
2023-04-09T08:15:35.403Z,30.75
2023-04-09T08:16:37.766Z,35.88
2023-04-09T08:17:40.486Z,37.97
2023-04-09T08:18:42.707Z,40.10
2023-04-09T08:19:45.106Z,34.88
2023-04-09T08:20:47.354Z,38.90
2023-04-09T08:21:49.664Z,39.90
2023-04-09T08:22:52.107Z,39.70
2023-04-09T08:23:56.140Z,37.25
2023-04-09T08:25:01.486Z,41.50
2023-04-09T08:26:04.866Z,43.05
2023-04-09T08:27:07.315Z,39.15
2023-04-09T08:28:09.797Z,42.20
2023-04-09T08:29:13.543Z,43.83
2023-04-09T08:30:18.258Z,41.20
2023-04-09T08:31:21.038Z,36.80
2023-04-09T08:32:23.252Z,39.15
2023-04-09T08:33:26.464Z,39.97
2023-04-09T08:34:28.903Z,41.58
2023-04-09T08:35:31.711Z,38.83
2023-04-09T08:36:35.448Z,39.20
2023-04-09T08:37:37.717Z,36.30
2023-04-09T08:38:40.642Z,34.28
2023-04-09T08:39:43.080Z,43.67
2023-04-09T08:40:45.456Z,37.67
2023-04-09T08:41:48.351Z,37.95
2023-04-09T08:42:59.293Z,39.60
2023-04-09T08:44:02.098Z,39.15
2023-04-09T08:45:05.635Z,46.10
2023-04-09T08:46:10.664Z,42.90
2023-04-09T08:47:13.499Z,37.22
2023-04-09T08:48:17.065Z,42.90
2023-04-09T08:49:19.510Z,41.35
2023-04-09T08:50:22.431Z,40.65
2023-04-09T08:51:24.986Z,41.20
2023-04-09T08:52:32.962Z,35.80
2023-04-09T08:53:36.757Z,41.40
2023-04-09T08:54:39.028Z,42.75
2023-04-09T08:55:45.538Z,37.70
2023-04-09T08:56:47.986Z,36.53
2023-04-09T08:57:50.241Z,39.35
2023-04-09T08:58:53.395Z,37.20
2023-04-09T08:59:56.169Z,37.33
2023-04-09T09:00:58.493Z,37.15
2023-04-09T09:02:08.066Z,34.22
2023-04-09T09:03:13.235Z,31.92
2023-04-09T09:04:15.546Z,31.45
2023-04-09T09:05:35.259Z,31.65
2023-04-09T09:06:39.717Z,31.90
2023-04-09T09:07:54.664Z,31.75
2023-04-09T09:09:09.990Z,31.48
2023-04-09T09:10:12.404Z,31.95
2023-04-09T09:11:27.056Z,32.42
2023-04-09T09:12:35.559Z,35.10
2023-04-09T09:13:37.777Z,34.83
2023-04-09T09:14:40.195Z,46.03
2023-04-09T09:15:42.699Z,60.72
2023-04-09T09:17:04.190Z,35.20
2023-04-09T09:18:07.214Z,32.85
2023-04-09T09:19:27.791Z,29.95
2023-04-09T09:20:30.250Z,27.67
2023-04-09T09:21:33.364Z,25.70
2023-04-09T09:22:55.205Z,27.20
2023-04-09T09:23:58.242Z,27.52
2023-04-09T09:25:01.027Z,26.10
2023-04-09T09:26:13.704Z,30.05
2023-04-09T09:27:43.142Z,29.27
2023-04-09T09:28:47.035Z,29.05
2023-04-09T09:29:49.231Z,27.42
2023-04-09T09:30:51.858Z,27.02
2023-04-09T09:31:56.267Z,31.10
2023-04-09T09:33:10.141Z,31.70
2023-04-09T09:34:12.349Z,28.85
2023-04-09T09:35:14.597Z,32.50
2023-04-09T09:36:33.924Z,29.70
2023-04-09T09:37:36.097Z,26.30
2023-04-09T09:38:57.890Z,28.55
2023-04-09T09:40:01.017Z,28.42
2023-04-09T09:41:18.279Z,30.52
2023-04-09T09:42:20.760Z,29.80
2023-04-09T09:43:23.108Z,42.08
2023-04-09T09:44:33.300Z,32.08
2023-04-09T09:45:36.892Z,29.63
2023-04-09T09:46:42.584Z,30.85
2023-04-09T09:47:45.813Z,31.08
2023-04-09T09:48:49.713Z,29.42
2023-04-09T09:49:52.320Z,31.02
2023-04-09T09:50:54.983Z,36.28
2023-04-09T09:51:59.972Z,32.28
2023-04-09T09:53:05.396Z,35.97
2023-04-09T09:54:12.890Z,31.35
2023-04-09T09:55:17.972Z,30.00
2023-04-09T09:56:24.792Z,32.60
2023-04-09T09:57:30.549Z,31.85
2023-04-09T09:58:38.865Z,30.77
2023-04-09T09:59:47.670Z,29.98
2023-04-09T10:00:51.736Z,26.83
2023-04-09T10:02:01.504Z,31.17
2023-04-09T10:03:16.104Z,30.08
2023-04-09T10:04:20.097Z,27.70
2023-04-09T10:05:26.790Z,26.42
2023-04-09T10:06:31.082Z,28.77
2023-04-09T10:07:33.811Z,27.30
2023-04-09T10:08:38.437Z,28.85
2023-04-09T10:09:51.525Z,28.50
2023-04-09T10:10:53.998Z,29.30
2023-04-09T10:11:59.295Z,34.60
2023-04-09T10:13:01.878Z,30.23
2023-04-09T10:14:07.577Z,25.65
2023-04-09T10:15:10.282Z,34.03
2023-04-09T10:16:13.259Z,38.35
2023-04-09T10:17:16.198Z,36.08
2023-04-09T10:18:18.687Z,26.88
2023-04-09T10:19:22.223Z,30.10
2023-04-09T10:20:32.539Z,29.25
2023-04-09T10:22:08.622Z,26.85
2023-04-09T10:23:19.488Z,26.38
2023-04-09T10:25:24.018Z,24.05
2023-04-09T10:26:31.054Z,28.15
2023-04-09T10:27:33.235Z,27.60
2023-04-09T10:28:37.523Z,29.38
2023-04-09T10:29:45.391Z,24.35
2023-04-09T10:30:48.107Z,26.48
2023-04-09T10:32:07.118Z,24.55
2023-04-09T10:33:26.512Z,24.95
2023-04-09T10:34:29.453Z,23.05
2023-04-09T10:35:31.633Z,23.95
2023-04-09T10:36:34.024Z,24.55
2023-04-09T10:37:36.495Z,28.08
2023-04-09T10:38:45.166Z,27.83
2023-04-09T10:39:48.854Z,24.67
2023-04-09T10:40:51.438Z,23.67
2023-04-09T10:41:55.138Z,25.40
2023-04-09T10:42:59.430Z,22.38
2023-04-09T10:44:06.676Z,22.45
2023-04-09T10:45:14.699Z,23.05
2023-04-09T10:46:26.888Z,24.35
2023-04-09T10:47:34.662Z,24.40
2023-04-09T10:48:36.929Z,24.85
2023-04-09T10:49:40.709Z,25.77
2023-04-09T10:50:44.709Z,21.40
2023-04-09T10:52:07.996Z,22.38
2023-04-09T10:53:25.792Z,23.15
2023-04-09T10:54:36.138Z,24.67
2023-04-09T10:55:41.892Z,31.77
2023-04-09T10:57:17.952Z,23.63
2023-04-09T10:58:20.564Z,22.73
2023-04-09T10:59:23.000Z,25.08
2023-04-09T11:00:25.461Z,28.60
2023-04-09T11:01:28.460Z,22.67
2023-04-09T11:02:39.827Z,22.75
2023-04-09T11:03:46.738Z,22.60
2023-04-09T11:05:07.361Z,23.48
2023-04-09T11:06:10.875Z,22.27
2023-04-09T11:07:17.751Z,22.08
2023-04-09T11:08:21.986Z,23.92
2023-04-09T11:09:24.199Z,24.40
2023-04-09T11:10:26.811Z,21.65
2023-04-09T11:11:29.515Z,24.67
2023-04-09T11:12:31.685Z,28.02
2023-04-09T11:13:34.497Z,26.52
2023-04-09T11:14:36.930Z,23.90
2023-04-09T11:15:39.485Z,24.02
2023-04-09T11:16:41.737Z,22.92
2023-04-09T11:17:44.811Z,23.63
2023-04-09T11:18:47.074Z,22.23
2023-04-09T11:19:50.031Z,23.48
2023-04-09T11:20:59.466Z,22.40
2023-04-09T11:22:06.534Z,22.73
2023-04-09T11:23:10.398Z,22.40
2023-04-09T11:24:13.017Z,22.92
2023-04-09T11:25:34.973Z,19.40
2023-04-09T11:26:37.660Z,19.63
2023-04-09T11:27:46.790Z,22.55
2023-04-09T11:28:49.202Z,24.70
2023-04-09T11:29:55.963Z,23.38
2023-04-09T11:30:58.222Z,21.42
2023-04-09T11:32:00.816Z,25.17
2023-04-09T11:33:03.227Z,26.58
2023-04-09T11:34:05.573Z,21.55
2023-04-09T11:35:15.629Z,22.58
2023-04-09T11:36:17.883Z,20.65
2023-04-09T11:37:20.536Z,23.52
2023-04-09T11:38:23.360Z,23.95
2023-04-09T11:39:26.363Z,22.02
2023-04-09T11:40:29.270Z,22.25
2023-04-09T11:41:36.194Z,24.25
2023-04-09T11:42:38.362Z,23.05
2023-04-09T11:43:40.683Z,22.45
2023-04-09T11:44:45.369Z,22.13
2023-04-09T11:45:48.565Z,21.65
2023-04-09T11:46:52.317Z,21.33
2023-04-09T11:47:55.436Z,20.17
2023-04-09T11:48:57.954Z,22.60
2023-04-09T11:50:00.200Z,22.83
2023-04-09T11:51:03.930Z,24.60
2023-04-09T11:52:06.517Z,23.30
2023-04-09T11:53:22.172Z,19.60
2023-04-09T11:54:24.362Z,21.10
2023-04-09T11:55:28.068Z,22.52
2023-04-09T11:56:31.253Z,22.90
2023-04-09T11:57:39.583Z,24.67
2023-04-09T11:58:46.996Z,20.33
2023-04-09T11:59:49.368Z,25.13
2023-04-09T12:01:00.569Z,25.98
2023-04-09T12:02:07.075Z,20.80
2023-04-09T12:03:10.884Z,21.00
2023-04-09T12:04:21.456Z,19.75
2023-04-09T12:05:26.285Z,20.25
2023-04-09T12:06:28.600Z,22.13
2023-04-09T12:07:34.386Z,22.38
2023-04-09T12:08:37.561Z,22.13
2023-04-09T12:09:49.201Z,20.65
2023-04-09T12:10:54.672Z,23.65
2023-04-09T12:11:59.403Z,22.20
2023-04-09T12:13:04.313Z,21.42
2023-04-09T12:14:06.641Z,22.13
2023-04-09T12:15:23.752Z,22.67
2023-04-09T12:16:26.014Z,22.85
2023-04-09T12:17:28.580Z,21.20
2023-04-09T12:18:31.196Z,21.55
2023-04-09T12:19:36.574Z,21.15
2023-04-09T12:20:41.418Z,22.40
2023-04-09T12:21:52.025Z,20.98
2023-04-09T12:23:56.740Z,18.40
2023-04-09T12:24:58.903Z,21.20
2023-04-09T12:26:01.337Z,22.23
2023-04-09T12:27:03.575Z,17.95
2023-04-09T12:28:07.513Z,20.75
2023-04-09T12:29:09.682Z,18.42
2023-04-09T12:30:11.879Z,21.13
2023-04-09T12:31:14.257Z,18.83
2023-04-09T12:32:16.460Z,18.20
2023-04-09T12:33:19.219Z,19.63
2023-04-09T12:34:21.412Z,19.75
2023-04-09T12:35:23.992Z,19.67
2023-04-09T12:36:26.520Z,19.33
2023-04-09T12:37:28.911Z,19.88
2023-04-09T12:38:31.173Z,18.00
2023-04-09T12:39:34.405Z,21.08
2023-04-09T12:40:37.090Z,18.20
2023-04-09T12:41:39.336Z,20.65
2023-04-09T12:42:42.762Z,20.63
2023-04-09T12:43:44.938Z,17.73
2023-04-09T12:44:47.308Z,18.40
2023-04-09T12:45:49.808Z,25.25
2023-04-09T12:46:52.065Z,17.77
2023-04-09T12:47:54.596Z,19.17
2023-04-09T12:48:56.822Z,21.02
2023-04-09T12:49:59.146Z,17.10
2023-04-09T12:51:02.031Z,21.52
2023-04-09T12:52:04.431Z,18.58
2023-04-09T12:53:06.984Z,20.52
2023-04-09T12:54:09.256Z,19.25
2023-04-09T12:55:12.676Z,18.63
2023-04-09T12:56:15.104Z,21.52
2023-04-09T12:57:17.667Z,17.20
2023-04-09T12:58:20.097Z,18.50
2023-04-09T12:59:22.289Z,20.58
2023-04-09T13:00:24.733Z,18.55
2023-04-09T13:01:27.393Z,16.73
2023-04-09T13:02:30.444Z,15.07
2023-04-09T13:03:34.527Z,18.17
2023-04-09T13:04:37.209Z,17.48
2023-04-09T13:05:39.699Z,15.07
2023-04-09T13:06:42.174Z,17.90
2023-04-09T13:07:44.474Z,15.30
2023-04-09T13:08:46.901Z,14.90
2023-04-09T13:09:52.610Z,16.52
2023-04-09T13:10:54.875Z,15.50
2023-04-09T13:11:57.297Z,16.02
2023-04-09T13:12:59.895Z,14.50
2023-04-09T13:14:02.118Z,18.83
2023-04-09T13:15:04.738Z,16.80
2023-04-09T13:16:07.533Z,16.08
2023-04-09T13:17:09.995Z,17.65
2023-04-09T13:18:15.099Z,19.00
2023-04-09T13:19:17.308Z,15.18
2023-04-09T13:20:19.775Z,16.88
2023-04-09T13:21:22.178Z,17.98
2023-04-09T13:22:24.503Z,16.50
2023-04-09T13:23:26.897Z,18.02
2023-04-09T13:24:29.320Z,16.30
2023-04-09T13:25:31.614Z,14.98
2023-04-09T13:26:34.179Z,16.05
2023-04-09T13:27:36.386Z,16.00
2023-04-09T13:28:38.593Z,19.00
2023-04-09T13:29:41.187Z,17.30
2023-04-09T13:30:43.431Z,15.85
2023-04-09T13:31:45.853Z,15.15
2023-04-09T13:32:48.134Z,15.52
2023-04-09T13:33:50.378Z,15.60
2023-04-09T13:34:54.619Z,16.30
2023-04-09T13:35:57.602Z,17.45
2023-04-09T13:36:59.887Z,17.45
2023-04-09T13:38:02.173Z,16.02
2023-04-09T13:39:04.588Z,16.95
2023-04-09T13:40:09.222Z,18.75
2023-04-09T13:41:11.629Z,22.20
2023-04-09T13:42:14.522Z,17.40
2023-04-09T13:43:17.073Z,24.70
2023-04-09T13:44:19.518Z,25.63
2023-04-09T13:45:23.900Z,23.05
2023-04-09T13:46:26.332Z,24.45
2023-04-09T13:47:28.604Z,20.55
2023-04-09T13:48:30.936Z,17.45
2023-04-09T13:49:33.308Z,16.27
2023-04-09T13:50:35.874Z,17.30
2023-04-09T13:51:38.226Z,14.50
2023-04-09T13:52:40.538Z,13.65
2023-04-09T13:53:43.333Z,15.77